Minerva Astra — 9HDW7 — position and weather

sailwx.info

Track history (hours):
 
Tides and Currents Weather Stations Pressure Air Temp Water Temp Dewpoint Dewpoint Depression Visibility Wind Speed Wind Dir Waves Ship Positions

Minerva Astra

Last reported at 2014-Oct-01 17:33 UTC. Time now 2014-Oct-02 14:38 UTC.
Position N 35°49' E 032°55'.

Length 248 m; draft 8.4 m.

Type: Tanker. MMSI: 256703000.

Date/timePositionNaut miles runAvg speedWind from/ knotsBaromVisibWave heightAir tempDewpointWater temp
2014-Oct-01 17:33N 35°49' E 032°55'1712.2
2014-Oct-01 16:11N 35°48' E 032°35'29112.3
2014-Sep-30 16:33N 36°07' E 026°36'1312.7
2014-Sep-30 15:33N 36°09' E 026°21'1312.6
2014-Sep-30 14:33N 36°09' E 026°05'1212.3
2014-Sep-30 13:33N 36°10' E 025°50'1212.2
2014-Sep-30 12:33N 36°09' E 025°35'1212.3
2014-Sep-30 11:33N 36°09' E 025°19'1212.2
2014-Sep-30 10:33N 36°10' E 025°04'1212.3
2014-Sep-30 09:33N 36°12' E 024°49'1312.6
2014-Sep-30 08:33N 36°13' E 024°34'1312.5
2014-Sep-30 07:33N 36°14' E 024°18'1211.8
2014-Sep-30 06:33N 36°16' E 024°04'1311.6
2014-Sep-30 05:28N 36°17' E 023°48'  
Track history (hours):
 
Tides and Currents Weather Stations Pressure Air Temp Water Temp Dewpoint Dewpoint Depression Visibility Wind Speed Wind Dir Waves Ship Positions

Minerva Astra

Last reported at 2014-Oct-01 17:33 UTC. Time now 2014-Oct-02 14:38 UTC.
Position N 35°49' E 032°55'.

Length 248 m; draft 8.4 m.

Type: Tanker. MMSI: 256703000.

Date/timePositionNaut miles runAvg speedWind from/ knotsBaromVisibWave heightAir tempDewpointWater temp
2014-Oct-01 17:33N 35°49' E 032°55'1712.2
2014-Oct-01 16:11N 35°48' E 032°35'29112.3
2014-Sep-30 16:33N 36°07' E 026°36'1312.7
2014-Sep-30 15:33N 36°09' E 026°21'1312.6
2014-Sep-30 14:33N 36°09' E 026°05'1212.3
2014-Sep-30 13:33N 36°10' E 025°50'1212.2
2014-Sep-30 12:33N 36°09' E 025°35'1212.3
2014-Sep-30 11:33N 36°09' E 025°19'1212.2
2014-Sep-30 10:33N 36°10' E 025°04'1212.3
2014-Sep-30 09:33N 36°12' E 024°49'1312.6
2014-Sep-30 08:33N 36°13' E 024°34'1312.5
2014-Sep-30 07:33N 36°14' E 024°18'1211.8
2014-Sep-30 06:33N 36°16' E 024°04'1311.6
2014-Sep-30 05:28N 36°17' E 023°48'  

Dump ship's entire track history